Time,TemperatureF,DewpointF,PressureIn,WindDirection,WindDirectionDegrees,WindSpeedMPH,WindSpeedGustMPH,Humidity,HourlyPrecipIn,Conditions,Clouds,dailyrainin,SoftwareType,DateUTC
2013-05-09 00:01:00,60.2,56.0,29.94,NW,322,0.0,2.0,86,0.00,,,0.00,weatherlink.com 1.10,2013-05-09 04:01:00,
2013-05-09 00:16:00,59.8,56.0,29.94,NNW,345,0.0,2.0,86,0.00,,,0.00,weatherlink.com 1.10,2013-05-09 04:16:00,
2013-05-09 00:31:00,59.3,56.0,29.93,NW,314,0.0,2.0,87,0.00,,,0.00,weatherlink.com 1.10,2013-05-09 04:31:00,
2013-05-09 00:46:00,59.0,55.0,29.93,North,349,0.0,1.0,87,0.00,,,0.00,weatherlink.com 1.10,2013-05-09 04:46:00,
2013-05-09 01:01:00,58.8,55.0,29.93,North,352,0.0,0.0,87,0.01,,,0.01,weatherlink.com 1.10,2013-05-09 05:01:00,
2013-05-09 01:16:00,58.6,55.0,29.92,NNW,345,0.0,0.0,87,0.02,,,0.02,weatherlink.com 1.10,2013-05-09 05:16:00,
2013-05-09 01:32:00,58.5,55.0,29.92,NNW,346,0.0,0.0,87,0.02,,,0.02,weatherlink.com 1.10,2013-05-09 05:32:00,
2013-05-09 01:46:00,58.4,55.0,29.92,WNW,283,1.0,2.0,87,0.02,,,0.02,weatherlink.com 1.10,2013-05-09 05:46:00,
2013-05-09 02:01:00,57.9,54.0,29.91,NW,304,1.0,5.0,87,0.01,,,0.02,weatherlink.com 1.10,2013-05-09 06:01:00,
2013-05-09 02:16:00,57.2,53.0,29.91,WNW,292,3.0,6.0,87,0.00,,,0.02,weatherlink.com 1.10,2013-05-09 06:16:00,
2013-05-09 02:31:00,56.8,53.0,29.91,NW,321,2.0,2.0,88,0.01,,,0.03,weatherlink.com 1.10,2013-05-09 06:31:00,
2013-05-09 02:46:00,56.7,53.0,29.90,WNW,296,1.0,2.0,88,0.01,,,0.03,weatherlink.com 1.10,2013-05-09 06:46:00,
2013-05-09 03:01:00,56.5,53.0,29.91,NW,323,0.0,2.0,88,0.01,,,0.03,weatherlink.com 1.10,2013-05-09 07:01:00,
2013-05-09 03:16:00,56.3,53.0,29.91,West,280,0.0,3.0,88,0.01,,,0.03,weatherlink.com 1.10,2013-05-09 07:16:00,
2013-05-09 03:31:00,56.1,53.0,29.90,North,358,0.0,3.0,88,0.00,,,0.03,weatherlink.com 1.10,2013-05-09 07:31:00,
2013-05-09 03:46:00,56.0,53.0,29.90,WNW,302,2.0,2.0,88,0.00,,,0.03,weatherlink.com 1.10,2013-05-09 07:46:00,
2013-05-09 04:01:00,55.9,52.0,29.90,WNW,298,1.0,3.0,88,0.00,,,0.03,weatherlink.com 1.10,2013-05-09 08:01:00,
2013-05-09 04:16:00,55.8,52.0,29.90,WNW,294,0.0,2.0,88,0.00,,,0.03,weatherlink.com 1.10,2013-05-09 08:16:00,
2013-05-09 04:31:00,55.8,53.0,29.90,WNW,287,2.0,2.0,89,0.00,,,0.03,weatherlink.com 1.10,2013-05-09 08:31:00,
2013-05-09 04:46:00,55.8,53.0,29.90,West,264,0.0,2.0,89,0.00,,,0.03,weatherlink.com 1.10,2013-05-09 08:46:00,
2013-05-09 05:01:00,55.7,53.0,29.90,NW,314,0.0,2.0,89,0.00,,,0.03,weatherlink.com 1.10,2013-05-09 09:01:00,
2013-05-09 05:17:00,55.8,53.0,29.90,WSW,248,0.0,0.0,89,0.00,,,0.03,weatherlink.com 1.10,2013-05-09 09:17:00,
2013-05-09 05:32:00,55.8,53.0,29.89,West,269,0.0,0.0,89,0.01,,,0.04,weatherlink.com 1.10,2013-05-09 09:32:00,
2013-05-09 05:47:00,55.8,53.0,29.90,West,269,0.0,1.0,89,0.02,,,0.05,weatherlink.com 1.10,2013-05-09 09:47:00,
2013-05-09 06:02:00,55.8,53.0,29.90,West,280,0.0,2.0,89,0.02,,,0.05,weatherlink.com 1.10,2013-05-09 10:02:00,
2013-05-09 06:17:00,55.9,53.0,29.90,West,260,0.0,1.0,89,0.02,,,0.05,weatherlink.com 1.10,2013-05-09 10:17:00,
2013-05-09 06:32:00,56.2,53.0,29.91,West,269,0.0,0.0,89,0.01,,,0.05,weatherlink.com 1.10,2013-05-09 10:32:00,
2013-05-09 06:47:00,56.3,53.0,29.91,SW,236,0.0,1.0,89,0.00,,,0.05,weatherlink.com 1.10,2013-05-09 10:47:00,
2013-05-09 07:02:00,56.6,54.0,29.91,West,264,0.0,0.0,89,0.00,,,0.05,weatherlink.com 1.10,2013-05-09 11:02:00,
2013-05-09 07:17:00,57.0,54.0,29.92,WSW,243,0.0,0.0,89,0.00,,,0.05,weatherlink.com 1.10,2013-05-09 11:17:00,
2013-05-09 07:32:00,57.3,54.0,29.92,NW,312,1.0,2.0,89,0.00,,,0.05,weatherlink.com 1.10,2013-05-09 11:32:00,
2013-05-09 07:47:00,57.7,55.0,29.92,West,270,0.0,0.0,89,0.00,,,0.05,weatherlink.com 1.10,2013-05-09 11:47:00,
2013-05-09 08:02:00,58.1,55.0,29.92,West,273,0.0,0.0,89,0.00,,,0.05,weatherlink.com 1.10,2013-05-09 12:02:00,
2013-05-09 08:17:00,58.6,55.0,29.93,NW,310,1.0,2.0,89,0.00,,,0.05,weatherlink.com 1.10,2013-05-09 12:17:00,
2013-05-09 08:32:00,58.9,56.0,29.94,WNW,284,1.0,3.0,89,0.00,,,0.05,weatherlink.com 1.10,2013-05-09 12:32:00,
2013-05-09 08:47:00,59.4,56.0,29.94,West,262,1.0,3.0,89,0.00,,,0.05,weatherlink.com 1.10,2013-05-09 12:47:00,
2013-05-09 09:02:00,60.0,57.0,29.94,WNW,294,1.0,4.0,89,0.00,,,0.05,weatherlink.com 1.10,2013-05-09 13:02:00,
2013-05-09 09:17:00,60.6,57.0,29.94,NW,314,1.0,6.0,89,0.00,,,0.05,weatherlink.com 1.10,2013-05-09 13:17:00,
2013-05-09 09:32:00,61.4,58.0,29.93,WNW,288,1.0,4.0,88,0.00,,,0.05,weatherlink.com 1.10,2013-05-09 13:32:00,
2013-05-09 09:47:00,61.8,58.0,29.94,WNW,285,1.0,5.0,87,0.00,,,0.05,weatherlink.com 1.10,2013-05-09 13:47:00,
2013-05-09 10:02:00,62.4,59.0,29.94,NW,311,1.0,4.0,87,0.00,,,0.05,weatherlink.com 1.10,2013-05-09 14:02:00,
2013-05-09 10:17:00,63.0,58.0,29.94,West,279,3.0,5.0,84,0.00,,,0.05,weatherlink.com 1.10,2013-05-09 14:17:00,
2013-05-09 10:32:00,63.8,58.0,29.94,NNW,339,1.0,6.0,82,0.00,,,0.05,weatherlink.com 1.10,2013-05-09 14:32:00,
2013-05-09 10:47:00,63.8,58.0,29.94,NW,304,3.0,7.0,81,0.00,,,0.05,weatherlink.com 1.10,2013-05-09 14:47:00,
2013-05-09 11:02:00,63.8,58.0,29.94,NNE,12,3.0,8.0,80,0.00,,,0.05,weatherlink.com 1.10,2013-05-09 15:02:00,
2013-05-09 11:17:00,64.2,58.0,29.95,NW,314,5.0,6.0,81,0.00,,,0.05,weatherlink.com 1.10,2013-05-09 15:17:00,
2013-05-09 11:32:00,64.6,58.0,29.95,WNW,297,6.0,6.0,79,0.00,,,0.05,weatherlink.com 1.10,2013-05-09 15:32:00,
2013-05-09 11:47:00,65.9,58.0,29.94,NW,323,5.0,10.0,75,0.00,,,0.05,weatherlink.com 1.10,2013-05-09 15:47:00,
2013-05-09 12:02:00,66.2,58.0,29.95,WNW,302,4.0,8.0,74,0.00,,,0.05,weatherlink.com 1.10,2013-05-09 16:02:00,
2013-05-09 12:17:00,67.0,58.0,29.94,NW,306,0.0,5.0,73,0.00,,,0.05,weatherlink.com 1.10,2013-05-09 16:17:00,
2013-05-09 12:32:00,67.7,57.0,29.95,West,281,3.0,7.0,68,0.00,,,0.05,weatherlink.com 1.10,2013-05-09 16:32:00,
2013-05-09 12:48:00,68.5,57.0,29.95,WNW,297,4.0,7.0,66,0.00,,,0.05,weatherlink.com 1.10,2013-05-09 16:48:00,
2013-05-09 13:03:00,68.8,57.0,29.94,NNW,331,2.0,8.0,67,0.00,,,0.05,weatherlink.com 1.10,2013-05-09 17:03:00,
2013-05-09 13:18:00,68.5,57.0,29.94,North,354,3.0,6.0,67,0.00,,,0.05,weatherlink.com 1.10,2013-05-09 17:18:00,
2013-05-09 13:33:00,68.4,57.0,29.94,NW,321,1.0,11.0,66,0.00,,,0.05,weatherlink.com 1.10,2013-05-09 17:33:00,
2013-05-09 13:48:00,69.5,57.0,29.94,NW,325,3.0,7.0,65,0.00,,,0.05,weatherlink.com 1.10,2013-05-09 17:48:00,
2013-05-09 14:18:00,70.0,56.0,29.94,WNW,290,3.0,11.0,61,0.00,,,0.05,weatherlink.com 1.10,2013-05-09 18:18:00,
2013-05-09 14:33:00,69.5,55.0,29.94,NW,320,4.0,9.0,61,0.00,,,0.05,weatherlink.com 1.10,2013-05-09 18:33:00,
2013-05-09 14:48:00,70.4,55.0,29.94,NW,316,1.0,8.0,59,0.00,,,0.05,weatherlink.com 1.10,2013-05-09 18:48:00,
2013-05-09 15:03:00,69.7,58.0,29.94,NW,321,2.0,9.0,66,0.00,,,0.05,weatherlink.com 1.10,2013-05-09 19:03:00,
2013-05-09 15:18:00,67.9,58.0,29.94,SW,225,2.0,6.0,70,0.00,,,0.05,weatherlink.com 1.10,2013-05-09 19:18:00,
2013-05-09 15:33:00,68.3,59.0,29.94,South,172,1.0,9.0,71,0.00,,,0.05,weatherlink.com 1.10,2013-05-09 19:33:00,
2013-05-09 15:48:00,67.9,58.0,29.94,ESE,110,4.0,10.0,70,0.00,,,0.05,weatherlink.com 1.10,2013-05-09 19:48:00,
2013-05-09 16:03:00,68.4,58.0,29.94,South,172,5.0,8.0,70,0.00,,,0.05,weatherlink.com 1.10,2013-05-09 20:03:00,
2013-05-09 16:19:00,69.9,58.0,29.94,East,82,5.0,9.0,66,0.00,,,0.05,weatherlink.com 1.10,2013-05-09 20:19:00,
2013-05-09 16:33:00,71.1,58.0,29.93,SSW,200,2.0,9.0,64,0.00,,,0.05,weatherlink.com 1.10,2013-05-09 20:33:00,
2013-05-09 16:49:00,71.5,58.0,29.93,NW,321,4.0,11.0,62,0.00,,,0.05,weatherlink.com 1.10,2013-05-09 20:49:00,
2013-05-09 17:02:00,72.5,50.0,29.93,NNW,333,3.0,6.0,46,0.00,,,0.05,weatherlink.com 1.10,2013-05-09 21:02:00,
2013-05-09 17:18:00,72.9,54.0,29.92,ENE,73,5.0,8.0,51,0.00,,,0.05,weatherlink.com 1.10,2013-05-09 21:18:00,
2013-05-09 17:34:00,72.2,56.0,29.92,SE,140,2.0,6.0,57,0.00,,,0.05,weatherlink.com 1.10,2013-05-09 21:34:00,
2013-05-09 17:49:00,71.6,56.0,29.92,SSE,159,6.0,9.0,58,0.00,,,0.05,weatherlink.com 1.10,2013-05-09 21:49:00,
2013-05-09 18:04:00,70.5,54.0,29.93,SSW,212,10.0,13.0,57,0.00,,,0.05,weatherlink.com 1.10,2013-05-09 22:04:00,
2013-05-09 18:19:00,69.7,55.0,29.93,SSW,195,4.0,11.0,59,0.00,,,0.05,weatherlink.com 1.10,2013-05-09 22:19:00,
2013-05-09 18:34:00,69.5,54.0,29.93,SSW,195,8.0,11.0,58,0.00,,,0.05,weatherlink.com 1.10,2013-05-09 22:34:00,
2013-05-09 18:49:00,68.7,53.0,29.93,SSE,167,11.0,12.0,58,0.00,,,0.05,weatherlink.com 1.10,2013-05-09 22:49:00,
2013-05-09 19:04:00,68.3,53.0,29.93,SSW,195,3.0,10.0,59,0.00,,,0.05,weatherlink.com 1.10,2013-05-09 23:04:00,
2013-05-09 19:19:00,67.8,53.0,29.93,SW,226,5.0,11.0,59,0.00,,,0.05,weatherlink.com 1.10,2013-05-09 23:19:00,
2013-05-09 19:34:00,66.8,51.0,29.93,SW,229,6.0,11.0,58,0.00,,,0.05,weatherlink.com 1.10,2013-05-09 23:34:00,
2013-05-09 19:49:00,65.8,51.0,29.93,SSW,204,4.0,10.0,59,0.00,,,0.05,weatherlink.com 1.10,2013-05-09 23:49:00,
2013-05-09 20:04:00,64.7,52.0,29.93,SW,214,5.0,7.0,63,0.00,,,0.05,weatherlink.com 1.10,2013-05-10 00:04:00,
2013-05-09 20:19:00,63.3,52.0,29.93,South,181,4.0,7.0,66,0.00,,,0.05,weatherlink.com 1.10,2013-05-10 00:19:00,
2013-05-09 20:34:00,62.2,51.0,29.93,SSW,208,3.0,9.0,68,0.00,,,0.05,weatherlink.com 1.10,2013-05-10 00:34:00,
2013-05-09 20:48:00,61.4,51.0,29.94,SSE,156,3.0,7.0,69,0.00,,,0.05,weatherlink.com 1.10,2013-05-10 00:48:00,
2013-05-09 21:04:00,60.3,51.0,29.94,ESE,118,5.0,8.0,71,0.00,,,0.05,weatherlink.com 1.10,2013-05-10 01:04:00,
2013-05-09 21:19:00,59.5,50.0,29.95,SW,215,2.0,6.0,72,0.00,,,0.05,weatherlink.com 1.10,2013-05-10 01:19:00,
2013-05-09 21:33:00,58.7,50.0,29.96,South,176,4.0,7.0,74,0.00,,,0.05,weatherlink.com 1.10,2013-05-10 01:33:00,
2013-05-09 21:48:00,58.2,50.0,29.96,SSE,156,4.0,6.0,74,0.00,,,0.05,weatherlink.com 1.10,2013-05-10 01:48:00,
2013-05-09 22:03:00,57.0,49.0,29.96,SSE,158,3.0,5.0,75,0.00,,,0.05,weatherlink.com 1.10,2013-05-10 02:03:00,
2013-05-09 22:18:00,56.3,49.0,29.96,SSW,194,3.0,7.0,77,0.00,,,0.05,weatherlink.com 1.10,2013-05-10 02:18:00,
2013-05-09 22:33:00,56.0,49.0,29.96,SSW,198,5.0,6.0,77,0.00,,,0.05,weatherlink.com 1.10,2013-05-10 02:33:00,
2013-05-09 22:48:00,56.0,49.0,29.96,SSE,167,6.0,8.0,77,0.00,,,0.05,weatherlink.com 1.10,2013-05-10 02:48:00,
2013-05-09 23:03:00,56.0,49.0,29.95,South,177,3.0,9.0,77,0.00,,,0.05,weatherlink.com 1.10,2013-05-10 03:03:00,
2013-05-09 23:18:00,55.9,49.0,29.95,SSW,195,3.0,9.0,77,0.00,,,0.05,weatherlink.com 1.10,2013-05-10 03:18:00,
2013-05-09 23:33:00,55.8,49.0,29.95,South,187,2.0,8.0,78,0.00,,,0.05,weatherlink.com 1.10,2013-05-10 03:33:00,
2013-05-09 23:48:00,55.6,49.0,29.95,South,190,4.0,6.0,78,0.00,,,0.05,weatherlink.com 1.10,2013-05-10 03:48:00,